sensor_id;sensor_type;location;lat;lon;timestamp;temperature;humidity
53272;DHT22;39160;48.580;7.756;2023-04-24T00:02:47;13.60;99.90
53272;DHT22;39160;48.580;7.756;2023-04-24T00:07:41;13.60;99.90
53272;DHT22;39160;48.580;7.756;2023-04-24T00:12:32;13.70;99.90
53272;DHT22;39160;48.580;7.756;2023-04-24T00:17:23;13.70;99.90
53272;DHT22;39160;48.580;7.756;2023-04-24T00:22:14;13.70;99.90
53272;DHT22;39160;48.580;7.756;2023-04-24T00:27:04;13.60;99.90
53272;DHT22;39160;48.580;7.756;2023-04-24T00:31:55;13.70;99.90
53272;DHT22;39160;48.580;7.756;2023-04-24T00:36:47;13.70;99.90
53272;DHT22;39160;48.580;7.756;2023-04-24T00:41:40;13.60;99.90
53272;DHT22;39160;48.580;7.756;2023-04-24T00:46:31;13.60;99.90
53272;DHT22;39160;48.580;7.756;2023-04-24T00:51:22;13.60;99.90
53272;DHT22;39160;48.580;7.756;2023-04-24T00:56:14;13.60;99.90
53272;DHT22;39160;48.580;7.756;2023-04-24T01:01:06;13.70;99.90
53272;DHT22;39160;48.580;7.756;2023-04-24T01:05:57;13.50;99.90
53272;DHT22;39160;48.580;7.756;2023-04-24T01:10:48;13.50;99.90
53272;DHT22;39160;48.580;7.756;2023-04-24T01:15:41;13.50;99.90
53272;DHT22;39160;48.580;7.756;2023-04-24T01:20:32;13.50;99.90
53272;DHT22;39160;48.580;7.756;2023-04-24T01:25:24;13.40;99.90
53272;DHT22;39160;48.580;7.756;2023-04-24T01:30:16;13.50;99.90
53272;DHT22;39160;48.580;7.756;2023-04-24T01:35:07;13.40;99.90
53272;DHT22;39160;48.580;7.756;2023-04-24T01:39:58;13.40;99.90
53272;DHT22;39160;48.580;7.756;2023-04-24T01:44:49;13.50;99.90
53272;DHT22;39160;48.580;7.756;2023-04-24T01:49:40;13.40;99.90
53272;DHT22;39160;48.580;7.756;2023-04-24T01:54:30;13.40;99.90
53272;DHT22;39160;48.580;7.756;2023-04-24T01:59:21;13.40;99.90
53272;DHT22;39160;48.580;7.756;2023-04-24T02:04:13;13.40;99.90
53272;DHT22;39160;48.580;7.756;2023-04-24T02:09:05;13.30;99.90
53272;DHT22;39160;48.580;7.756;2023-04-24T02:13:56;13.50;99.90
53272;DHT22;39160;48.580;7.756;2023-04-24T02:18:46;13.30;99.90
53272;DHT22;39160;48.580;7.756;2023-04-24T02:23:37;13.40;99.90
53272;DHT22;39160;48.580;7.756;2023-04-24T02:28:27;13.30;99.90
53272;DHT22;39160;48.580;7.756;2023-04-24T02:33:18;13.30;99.90
53272;DHT22;39160;48.580;7.756;2023-04-24T02:38:09;13.20;99.90
53272;DHT22;39160;48.580;7.756;2023-04-24T02:42:59;13.30;99.90
53272;DHT22;39160;48.580;7.756;2023-04-24T02:47:50;13.30;99.90
53272;DHT22;39160;48.580;7.756;2023-04-24T02:52:41;13.10;99.90
53272;DHT22;39160;48.580;7.756;2023-04-24T02:57:31;13.00;99.90
53272;DHT22;39160;48.580;7.756;2023-04-24T03:02:22;12.90;99.90
53272;DHT22;39160;48.580;7.756;2023-04-24T03:07:13;12.80;99.90
53272;DHT22;39160;48.580;7.756;2023-04-24T03:12:04;12.70;99.90
53272;DHT22;39160;48.580;7.756;2023-04-24T03:16:54;12.70;99.90
53272;DHT22;39160;48.580;7.756;2023-04-24T03:21:45;12.80;99.90
53272;DHT22;39160;48.580;7.756;2023-04-24T03:26:35;12.70;99.90
53272;DHT22;39160;48.580;7.756;2023-04-24T03:31:26;12.90;99.90
53272;DHT22;39160;48.580;7.756;2023-04-24T03:36:17;12.80;99.90
53272;DHT22;39160;48.580;7.756;2023-04-24T03:41:09;12.80;99.90
53272;DHT22;39160;48.580;7.756;2023-04-24T03:46:00;12.60;99.90
53272;DHT22;39160;48.580;7.756;2023-04-24T03:50:51;12.60;99.90
53272;DHT22;39160;48.580;7.756;2023-04-24T03:55:41;12.50;99.90
53272;DHT22;39160;48.580;7.756;2023-04-24T04:00:32;12.40;99.90
53272;DHT22;39160;48.580;7.756;2023-04-24T04:05:23;12.50;99.90
53272;DHT22;39160;48.580;7.756;2023-04-24T04:10:14;12.50;99.90
53272;DHT22;39160;48.580;7.756;2023-04-24T04:15:04;12.40;99.90
53272;DHT22;39160;48.580;7.756;2023-04-24T04:19:57;12.50;99.90
53272;DHT22;39160;48.580;7.756;2023-04-24T04:24:47;12.50;99.90
53272;DHT22;39160;48.580;7.756;2023-04-24T04:29:38;12.50;99.90
53272;DHT22;39160;48.580;7.756;2023-04-24T04:34:30;12.60;99.90
53272;DHT22;39160;48.580;7.756;2023-04-24T04:39:21;12.70;99.90
53272;DHT22;39160;48.580;7.756;2023-04-24T04:44:12;12.60;99.90
53272;DHT22;39160;48.580;7.756;2023-04-24T04:49:03;12.80;99.90
53272;DHT22;39160;48.580;7.756;2023-04-24T04:53:53;12.70;99.90
53272;DHT22;39160;48.580;7.756;2023-04-24T04:58:44;12.70;99.90
53272;DHT22;39160;48.580;7.756;2023-04-24T05:03:35;12.80;99.90
53272;DHT22;39160;48.580;7.756;2023-04-24T05:08:26;12.90;99.90
53272;DHT22;39160;48.580;7.756;2023-04-24T05:13:16;12.90;99.90
53272;DHT22;39160;48.580;7.756;2023-04-24T05:18:07;13.00;99.90
53272;DHT22;39160;48.580;7.756;2023-04-24T05:22:58;12.90;99.90
53272;DHT22;39160;48.580;7.756;2023-04-24T05:27:48;12.90;99.90
53272;DHT22;39160;48.580;7.756;2023-04-24T05:32:39;12.80;99.90
53272;DHT22;39160;48.580;7.756;2023-04-24T05:37:30;12.80;99.90
53272;DHT22;39160;48.580;7.756;2023-04-24T05:42:20;12.50;99.90
53272;DHT22;39160;48.580;7.756;2023-04-24T05:47:11;12.50;99.90
53272;DHT22;39160;48.580;7.756;2023-04-24T05:52:01;12.50;99.90
53272;DHT22;39160;48.580;7.756;2023-04-24T05:56:54;12.50;99.90
53272;DHT22;39160;48.580;7.756;2023-04-24T06:01:45;12.60;99.90
53272;DHT22;39160;48.580;7.756;2023-04-24T06:06:36;12.50;99.90
53272;DHT22;39160;48.580;7.756;2023-04-24T06:11:27;12.50;99.90
53272;DHT22;39160;48.580;7.756;2023-04-24T06:16:17;12.50;99.90
53272;DHT22;39160;48.580;7.756;2023-04-24T06:21:08;12.50;99.90
53272;DHT22;39160;48.580;7.756;2023-04-24T06:25:59;12.60;99.90
53272;DHT22;39160;48.580;7.756;2023-04-24T06:30:50;12.70;99.90
53272;DHT22;39160;48.580;7.756;2023-04-24T06:35:40;12.90;99.90
53272;DHT22;39160;48.580;7.756;2023-04-24T06:40:31;13.10;99.90
53272;DHT22;39160;48.580;7.756;2023-04-24T06:45:22;13.20;99.90
53272;DHT22;39160;48.580;7.756;2023-04-24T06:50:12;13.20;99.90
53272;DHT22;39160;48.580;7.756;2023-04-24T06:55:04;13.20;99.90
53272;DHT22;39160;48.580;7.756;2023-04-24T06:59:55;13.20;99.90
53272;DHT22;39160;48.580;7.756;2023-04-24T07:04:46;13.30;99.90
53272;DHT22;39160;48.580;7.756;2023-04-24T07:09:37;13.20;99.90
53272;DHT22;39160;48.580;7.756;2023-04-24T07:14:31;13.20;99.90
53272;DHT22;39160;48.580;7.756;2023-04-24T07:19:21;13.30;99.90
53272;DHT22;39160;48.580;7.756;2023-04-24T07:24:12;13.10;99.90
53272;DHT22;39160;48.580;7.756;2023-04-24T07:29:03;12.90;99.90
53272;DHT22;39160;48.580;7.756;2023-04-24T07:33:53;12.90;99.90
53272;DHT22;39160;48.580;7.756;2023-04-24T07:38:47;12.80;99.90
53272;DHT22;39160;48.580;7.756;2023-04-24T07:43:38;12.90;99.70
53272;DHT22;39160;48.580;7.756;2023-04-24T07:48:29;13.10;99.70
53272;DHT22;39160;48.580;7.756;2023-04-24T07:53:19;13.30;99.30
53272;DHT22;39160;48.580;7.756;2023-04-24T07:58:10;13.20;99.10
53272;DHT22;39160;48.580;7.756;2023-04-24T08:03:01;13.10;98.90
53272;DHT22;39160;48.580;7.756;2023-04-24T08:07:52;13.10;98.60
53272;DHT22;39160;48.580;7.756;2023-04-24T08:12:43;13.10;98.30
53272;DHT22;39160;48.580;7.756;2023-04-24T08:17:34;13.00;98.30
53272;DHT22;39160;48.580;7.756;2023-04-24T08:22:25;12.80;98.20
53272;DHT22;39160;48.580;7.756;2023-04-24T08:27:16;12.90;98.00
53272;DHT22;39160;48.580;7.756;2023-04-24T08:32:07;13.10;97.90
53272;DHT22;39160;48.580;7.756;2023-04-24T08:36:58;12.90;97.90
53272;DHT22;39160;48.580;7.756;2023-04-24T08:41:48;12.90;97.90
53272;DHT22;39160;48.580;7.756;2023-04-24T08:46:40;12.80;98.00
53272;DHT22;39160;48.580;7.756;2023-04-24T08:51:31;13.00;98.00
53272;DHT22;39160;48.580;7.756;2023-04-24T08:56:22;13.00;98.30
53272;DHT22;39160;48.580;7.756;2023-04-24T09:01:15;13.10;98.20
53272;DHT22;39160;48.580;7.756;2023-04-24T09:06:06;13.30;98.30
53272;DHT22;39160;48.580;7.756;2023-04-24T09:10:58;13.30;98.40
53272;DHT22;39160;48.580;7.756;2023-04-24T09:15:49;13.00;98.60
53272;DHT22;39160;48.580;7.756;2023-04-24T09:25:55;13.20;98.60
53272;DHT22;39160;48.580;7.756;2023-04-24T09:30:47;13.20;98.70
53272;DHT22;39160;48.580;7.756;2023-04-24T09:35:51;13.20;98.80
53272;DHT22;39160;48.580;7.756;2023-04-24T09:40:42;13.30;98.70
53272;DHT22;39160;48.580;7.756;2023-04-24T09:45:37;13.30;98.60
53272;DHT22;39160;48.580;7.756;2023-04-24T09:50:30;13.30;98.60
53272;DHT22;39160;48.580;7.756;2023-04-24T09:55:27;13.70;98.50
53272;DHT22;39160;48.580;7.756;2023-04-24T10:00:21;14.00;98.40
53272;DHT22;39160;48.580;7.756;2023-04-24T10:05:12;13.90;98.40
53272;DHT22;39160;48.580;7.756;2023-04-24T10:10:03;13.60;98.50
53272;DHT22;39160;48.580;7.756;2023-04-24T10:14:54;13.60;98.50
53272;DHT22;39160;48.580;7.756;2023-04-24T10:19:46;13.30;98.60
53272;DHT22;39160;48.580;7.756;2023-04-24T10:24:37;13.20;98.60
53272;DHT22;39160;48.580;7.756;2023-04-24T10:29:31;13.40;98.50
53272;DHT22;39160;48.580;7.756;2023-04-24T10:34:22;13.50;98.60
53272;DHT22;39160;48.580;7.756;2023-04-24T10:39:14;13.80;98.20
53272;DHT22;39160;48.580;7.756;2023-04-24T10:44:11;14.20;98.20
53272;DHT22;39160;48.580;7.756;2023-04-24T10:49:06;14.10;98.00
53272;DHT22;39160;48.580;7.756;2023-04-24T10:53:58;14.20;97.90
53272;DHT22;39160;48.580;7.756;2023-04-24T10:58:51;14.10;97.90
53272;DHT22;39160;48.580;7.756;2023-04-24T11:03:53;14.30;97.70
53272;DHT22;39160;48.580;7.756;2023-04-24T11:08:46;14.30;97.80
53272;DHT22;39160;48.580;7.756;2023-04-24T11:18:45;14.20;97.60
53272;DHT22;39160;48.580;7.756;2023-04-24T11:23:41;14.20;97.70
53272;DHT22;39160;48.580;7.756;2023-04-24T11:28:32;14.00;97.80
53272;DHT22;39160;48.580;7.756;2023-04-24T11:33:23;13.60;97.90
53272;DHT22;39160;48.580;7.756;2023-04-24T11:38:15;13.50;97.90
53272;DHT22;39160;48.580;7.756;2023-04-24T11:43:08;13.50;97.90
53272;DHT22;39160;48.580;7.756;2023-04-24T11:48:00;13.60;97.80
53272;DHT22;39160;48.580;7.756;2023-04-24T11:52:51;13.50;97.60
53272;DHT22;39160;48.580;7.756;2023-04-24T11:57:45;13.50;97.50
53272;DHT22;39160;48.580;7.756;2023-04-24T12:02:36;13.60;97.40
53272;DHT22;39160;48.580;7.756;2023-04-24T12:07:27;13.80;97.30
53272;DHT22;39160;48.580;7.756;2023-04-24T12:12:18;14.00;97.30
53272;DHT22;39160;48.580;7.756;2023-04-24T12:17:09;14.00;97.10
53272;DHT22;39160;48.580;7.756;2023-04-24T12:22:04;14.20;96.90
53272;DHT22;39160;48.580;7.756;2023-04-24T12:26:55;14.30;97.00
53272;DHT22;39160;48.580;7.756;2023-04-24T12:31:46;14.20;96.80
53272;DHT22;39160;48.580;7.756;2023-04-24T12:36:37;14.10;96.80
53272;DHT22;39160;48.580;7.756;2023-04-24T12:41:30;14.10;96.80
53272;DHT22;39160;48.580;7.756;2023-04-24T12:46:21;14.30;96.70
53272;DHT22;39160;48.580;7.756;2023-04-24T12:51:12;14.50;96.40
53272;DHT22;39160;48.580;7.756;2023-04-24T12:56:02;14.20;96.50
53272;DHT22;39160;48.580;7.756;2023-04-24T13:00:53;13.90;96.60
53272;DHT22;39160;48.580;7.756;2023-04-24T13:05:44;13.80;96.70
53272;DHT22;39160;48.580;7.756;2023-04-24T13:10:35;14.00;96.50
53272;DHT22;39160;48.580;7.756;2023-04-24T13:15:26;14.40;96.30
53272;DHT22;39160;48.580;7.756;2023-04-24T13:20:17;14.50;96.30
53272;DHT22;39160;48.580;7.756;2023-04-24T13:25:08;14.60;96.30
53272;DHT22;39160;48.580;7.756;2023-04-24T13:29:59;14.40;96.30
53272;DHT22;39160;48.580;7.756;2023-04-24T13:34:50;15.20;96.10
53272;DHT22;39160;48.580;7.756;2023-04-24T13:39:40;15.20;95.90
53272;DHT22;39160;48.580;7.756;2023-04-24T13:44:31;15.80;95.70
53272;DHT22;39160;48.580;7.756;2023-04-24T13:49:23;17.40;94.80
53272;DHT22;39160;48.580;7.756;2023-04-24T13:54:17;16.30;95.20
53272;DHT22;39160;48.580;7.756;2023-04-24T13:59:08;15.70;95.70
53272;DHT22;39160;48.580;7.756;2023-04-24T14:03:59;16.00;95.40
53272;DHT22;39160;48.580;7.756;2023-04-24T14:08:50;16.40;95.00
53272;DHT22;39160;48.580;7.756;2023-04-24T14:13:41;18.10;93.70
53272;DHT22;39160;48.580;7.756;2023-04-24T14:18:32;17.20;94.10
53272;DHT22;39160;48.580;7.756;2023-04-24T14:23:23;18.00;94.00
53272;DHT22;39160;48.580;7.756;2023-04-24T14:28:13;17.50;93.80
53272;DHT22;39160;48.580;7.756;2023-04-24T14:33:05;16.40;94.10
53272;DHT22;39160;48.580;7.756;2023-04-24T14:37:55;15.50;94.10
53272;DHT22;39160;48.580;7.756;2023-04-24T14:42:46;15.00;94.00
53272;DHT22;39160;48.580;7.756;2023-04-24T14:47:37;14.80;93.70
53272;DHT22;39160;48.580;7.756;2023-04-24T14:52:27;14.90;93.50
53272;DHT22;39160;48.580;7.756;2023-04-24T14:57:18;15.20;93.50
53272;DHT22;39160;48.580;7.756;2023-04-24T15:02:09;15.40;93.80
53272;DHT22;39160;48.580;7.756;2023-04-24T15:06:59;15.90;93.70
53272;DHT22;39160;48.580;7.756;2023-04-24T15:11:51;17.20;93.50
53272;DHT22;39160;48.580;7.756;2023-04-24T15:16:41;19.80;92.80
53272;DHT22;39160;48.580;7.756;2023-04-24T15:21:32;20.80;92.20
53272;DHT22;39160;48.580;7.756;2023-04-24T15:26:24;17.60;93.30
53272;DHT22;39160;48.580;7.756;2023-04-24T15:31:15;16.50;93.80
53272;DHT22;39160;48.580;7.756;2023-04-24T15:36:06;16.00;93.60
53272;DHT22;39160;48.580;7.756;2023-04-24T15:40:56;16.20;93.30
53272;DHT22;39160;48.580;7.756;2023-04-24T15:45:49;16.60;92.80
53272;DHT22;39160;48.580;7.756;2023-04-24T15:50:40;17.80;91.90
53272;DHT22;39160;48.580;7.756;2023-04-24T15:55:30;16.50;92.50
53272;DHT22;39160;48.580;7.756;2023-04-24T16:00:21;15.90;92.80
53272;DHT22;39160;48.580;7.756;2023-04-24T16:05:12;18.50;91.00
53272;DHT22;39160;48.580;7.756;2023-04-24T16:10:03;17.40;91.40
53272;DHT22;39160;48.580;7.756;2023-04-24T16:14:53;16.00;92.40
53272;DHT22;39160;48.580;7.756;2023-04-24T16:19:44;15.40;92.80
53272;DHT22;39160;48.580;7.756;2023-04-24T16:24:35;15.30;92.90
53272;DHT22;39160;48.580;7.756;2023-04-24T16:29:26;14.90;93.20
53272;DHT22;39160;48.580;7.756;2023-04-24T16:34:17;14.70;93.40
53272;DHT22;39160;48.580;7.756;2023-04-24T16:39:08;17.40;92.10
53272;DHT22;39160;48.580;7.756;2023-04-24T16:43:59;22.20;87.80
53272;DHT22;39160;48.580;7.756;2023-04-24T16:48:49;24.00;85.00
53272;DHT22;39160;48.580;7.756;2023-04-24T16:53:40;24.80;83.70
53272;DHT22;39160;48.580;7.756;2023-04-24T16:58:31;24.70;83.40
53272;DHT22;39160;48.580;7.756;2023-04-24T17:03:22;23.10;83.90
53272;DHT22;39160;48.580;7.756;2023-04-24T17:08:12;20.20;86.90
53272;DHT22;39160;48.580;7.756;2023-04-24T17:13:03;17.50;89.90
53272;DHT22;39160;48.580;7.756;2023-04-24T17:17:54;16.50;90.40
53272;DHT22;39160;48.580;7.756;2023-04-24T17:22:45;16.10;90.40
53272;DHT22;39160;48.580;7.756;2023-04-24T17:27:36;15.80;90.50
53272;DHT22;39160;48.580;7.756;2023-04-24T17:32:27;15.70;90.40
53272;DHT22;39160;48.580;7.756;2023-04-24T17:37:18;15.50;90.60
53272;DHT22;39160;48.580;7.756;2023-04-24T17:42:12;15.30;90.80
53272;DHT22;39160;48.580;7.756;2023-04-24T17:47:02;15.00;91.00
53272;DHT22;39160;48.580;7.756;2023-04-24T17:51:54;14.80;91.20
53272;DHT22;39160;48.580;7.756;2023-04-24T17:56:45;14.70;91.40
53272;DHT22;39160;48.580;7.756;2023-04-24T18:01:35;14.60;91.50
53272;DHT22;39160;48.580;7.756;2023-04-24T18:06:26;14.50;91.60
53272;DHT22;39160;48.580;7.756;2023-04-24T18:11:18;14.30;91.70
53272;DHT22;39160;48.580;7.756;2023-04-24T18:16:09;14.20;92.00
53272;DHT22;39160;48.580;7.756;2023-04-24T18:20:59;14.00;92.20
53272;DHT22;39160;48.580;7.756;2023-04-24T18:25:51;14.10;92.30
53272;DHT22;39160;48.580;7.756;2023-04-24T18:30:42;14.00;92.30
53272;DHT22;39160;48.580;7.756;2023-04-24T18:35:32;14.10;92.20
53272;DHT22;39160;48.580;7.756;2023-04-24T18:40:23;14.10;92.10
53272;DHT22;39160;48.580;7.756;2023-04-24T18:45:14;14.10;92.20
53272;DHT22;39160;48.580;7.756;2023-04-24T18:50:05;14.10;92.20
53272;DHT22;39160;48.580;7.756;2023-04-24T18:54:56;14.20;92.10
53272;DHT22;39160;48.580;7.756;2023-04-24T18:59:47;14.10;92.30
53272;DHT22;39160;48.580;7.756;2023-04-24T19:04:37;14.00;92.30
53272;DHT22;39160;48.580;7.756;2023-04-24T19:09:28;14.10;92.30
53272;DHT22;39160;48.580;7.756;2023-04-24T19:14:19;14.00;92.50
53272;DHT22;39160;48.580;7.756;2023-04-24T19:19:11;13.90;92.50
53272;DHT22;39160;48.580;7.756;2023-04-24T19:24:02;13.90;92.60
53272;DHT22;39160;48.580;7.756;2023-04-24T19:28:53;13.80;92.80
53272;DHT22;39160;48.580;7.756;2023-04-24T19:33:46;13.70;93.00
53272;DHT22;39160;48.580;7.756;2023-04-24T19:38:38;13.80;93.00
53272;DHT22;39160;48.580;7.756;2023-04-24T19:43:30;13.80;93.00
53272;DHT22;39160;48.580;7.756;2023-04-24T19:48:20;13.80;93.10
53272;DHT22;39160;48.580;7.756;2023-04-24T19:53:11;13.70;93.20
53272;DHT22;39160;48.580;7.756;2023-04-24T19:58:02;13.80;93.20
53272;DHT22;39160;48.580;7.756;2023-04-24T20:02:52;13.90;93.30
53272;DHT22;39160;48.580;7.756;2023-04-24T20:07:44;13.80;93.50
53272;DHT22;39160;48.580;7.756;2023-04-24T20:12:36;13.80;93.50
53272;DHT22;39160;48.580;7.756;2023-04-24T20:17:26;13.80;93.50
53272;DHT22;39160;48.580;7.756;2023-04-24T20:22:17;13.70;93.50
53272;DHT22;39160;48.580;7.756;2023-04-24T20:27:08;13.70;93.80
53272;DHT22;39160;48.580;7.756;2023-04-24T20:31:58;13.60;93.80
53272;DHT22;39160;48.580;7.756;2023-04-24T20:36:49;13.60;93.80
53272;DHT22;39160;48.580;7.756;2023-04-24T20:41:39;13.60;93.90
53272;DHT22;39160;48.580;7.756;2023-04-24T20:46:30;13.50;94.10
53272;DHT22;39160;48.580;7.756;2023-04-24T20:51:21;13.50;94.10
53272;DHT22;39160;48.580;7.756;2023-04-24T20:56:12;13.60;94.10
53272;DHT22;39160;48.580;7.756;2023-04-24T21:01:02;13.60;94.20
53272;DHT22;39160;48.580;7.756;2023-04-24T21:05:53;13.50;94.30
53272;DHT22;39160;48.580;7.756;2023-04-24T21:10:43;13.50;94.50
53272;DHT22;39160;48.580;7.756;2023-04-24T21:15:34;13.60;94.40
53272;DHT22;39160;48.580;7.756;2023-04-24T21:20:25;13.50;94.40
53272;DHT22;39160;48.580;7.756;2023-04-24T21:25:16;13.50;94.60
53272;DHT22;39160;48.580;7.756;2023-04-24T21:30:07;13.40;94.60
53272;DHT22;39160;48.580;7.756;2023-04-24T21:34:58;13.40;94.70
53272;DHT22;39160;48.580;7.756;2023-04-24T21:39:48;13.30;94.70
53272;DHT22;39160;48.580;7.756;2023-04-24T21:44:40;13.30;94.70
53272;DHT22;39160;48.580;7.756;2023-04-24T21:49:31;13.30;94.70
53272;DHT22;39160;48.580;7.756;2023-04-24T21:54:22;13.20;94.80
53272;DHT22;39160;48.580;7.756;2023-04-24T21:59:12;13.10;94.90
53272;DHT22;39160;48.580;7.756;2023-04-24T22:04:03;13.20;94.90
53272;DHT22;39160;48.580;7.756;2023-04-24T22:08:56;13.20;94.80
53272;DHT22;39160;48.580;7.756;2023-04-24T22:13:46;13.20;94.90
53272;DHT22;39160;48.580;7.756;2023-04-24T22:18:38;13.00;94.90
53272;DHT22;39160;48.580;7.756;2023-04-24T22:23:29;13.10;94.90
53272;DHT22;39160;48.580;7.756;2023-04-24T22:28:20;13.10;94.90
53272;DHT22;39160;48.580;7.756;2023-04-24T22:33:11;13.00;94.90
53272;DHT22;39160;48.580;7.756;2023-04-24T22:38:01;12.90;95.00
53272;DHT22;39160;48.580;7.756;2023-04-24T22:42:53;12.80;95.00
53272;DHT22;39160;48.580;7.756;2023-04-24T22:47:43;12.60;95.10
53272;DHT22;39160;48.580;7.756;2023-04-24T22:52:34;12.50;95.20
53272;DHT22;39160;48.580;7.756;2023-04-24T22:57:25;12.50;95.20
53272;DHT22;39160;48.580;7.756;2023-04-24T23:02:15;12.40;95.30
53272;DHT22;39160;48.580;7.756;2023-04-24T23:07:06;12.30;95.40
53272;DHT22;39160;48.580;7.756;2023-04-24T23:11:56;12.30;95.30
53272;DHT22;39160;48.580;7.756;2023-04-24T23:16:47;12.40;95.30
53272;DHT22;39160;48.580;7.756;2023-04-24T23:21:38;12.30;95.30
53272;DHT22;39160;48.580;7.756;2023-04-24T23:26:28;12.30;95.20
53272;DHT22;39160;48.580;7.756;2023-04-24T23:31:19;12.40;95.20
53272;DHT22;39160;48.580;7.756;2023-04-24T23:36:10;12.30;95.20
53272;DHT22;39160;48.580;7.756;2023-04-24T23:41:01;12.40;95.10
53272;DHT22;39160;48.580;7.756;2023-04-24T23:45:51;12.30;95.30
53272;DHT22;39160;48.580;7.756;2023-04-24T23:50:42;12.30;95.30
53272;DHT22;39160;48.580;7.756;2023-04-24T23:55:32;12.30;95.30
